Terminal Aerodrome Forecast
Issued by NWS Riverton, WY

Home | Current Version | Previous Version | Text Only | Print | Product List | Glossary On
Versions: 1 2 3 4 5 6 7 8 9 10 11
000
FTUS45 KRIW 130533
TAFRIW
TAF
KRIW 130533Z 1306/1406 VRB05KT P6SM SCT110 BKN250
     FM132200 35006KT P6SM VCSH SCT025 OVC040
     FM140000 36008KT 3SM -SN OVC016
     FM140500 36007KT P6SM VCSH OVC024=

USA.gov is the U.S. government's official web portal to all federal, state and local government web resources and services.